createdAt,value
2018-10-01T00:01:01.790Z,11.58
2018-10-01T00:03:29.056Z,11.47
2018-10-01T00:05:56.162Z,11.33
2018-10-01T00:08:23.349Z,11.28
2018-10-01T00:10:50.562Z,11.33
2018-10-01T00:13:17.725Z,11.35
2018-10-01T00:15:45.000Z,11.38
2018-10-01T00:18:12.148Z,11.37
2018-10-01T00:20:45.077Z,11.36
2018-10-01T00:23:12.263Z,11.40
2018-10-01T00:25:39.423Z,11.44
2018-10-01T00:28:06.589Z,11.51
2018-10-01T00:30:33.768Z,11.60
2018-10-01T00:33:00.961Z,11.69
2018-10-01T00:35:28.157Z,11.68
2018-10-01T00:37:55.405Z,11.64
2018-10-01T00:40:22.875Z,11.60
2018-10-01T00:42:50.197Z,11.74
2018-10-01T00:45:17.429Z,11.67
2018-10-01T00:47:44.601Z,11.70
2018-10-01T00:50:11.749Z,11.67
2018-10-01T00:52:38.872Z,11.63
2018-10-01T00:55:06.022Z,11.66
2018-10-01T00:57:33.241Z,11.55
2018-10-01T01:00:00.451Z,11.55
2018-10-01T01:02:27.601Z,11.59
2018-10-01T01:04:54.721Z,11.60
2018-10-01T01:07:21.900Z,11.69
2018-10-01T01:09:49.078Z,11.66
2018-10-01T01:12:16.225Z,11.66
2018-10-01T01:14:43.453Z,11.53
2018-10-01T01:17:10.734Z,11.49
2018-10-01T01:19:37.874Z,11.47
2018-10-01T01:22:05.076Z,11.44
2018-10-01T01:24:32.338Z,11.60
2018-10-01T01:26:59.590Z,11.48
2018-10-01T01:29:26.735Z,11.48
2018-10-01T01:31:53.918Z,11.38
2018-10-01T01:34:21.076Z,11.37
2018-10-01T01:36:48.266Z,11.39
2018-10-01T01:39:15.502Z,11.33
2018-10-01T01:41:42.657Z,11.19
2018-10-01T01:44:09.852Z,11.19
2018-10-01T01:46:37.246Z,11.09
2018-10-01T01:49:04.554Z,10.78
2018-10-01T01:51:31.709Z,10.85
2018-10-01T01:53:58.894Z,10.89
2018-10-01T01:56:26.094Z,10.91
2018-10-01T01:58:53.292Z,10.96
2018-10-01T02:01:20.488Z,10.96
2018-10-01T02:03:48.484Z,10.93
2018-10-01T02:06:15.630Z,10.86
2018-10-01T02:08:42.823Z,10.76
2018-10-01T02:11:10.108Z,10.76
2018-10-01T02:13:37.574Z,10.60
2018-10-01T02:16:05.122Z,10.64
2018-10-01T02:18:32.349Z,10.64
2018-10-01T02:20:59.515Z,10.65
2018-10-01T02:23:26.861Z,10.62
2018-10-01T02:25:53.990Z,10.73
2018-10-01T02:28:21.186Z,10.75
2018-10-01T02:30:48.476Z,10.80
2018-10-01T02:33:15.658Z,10.76
2018-10-01T02:35:42.807Z,10.84
2018-10-01T02:38:10.086Z,10.88
2018-10-01T02:40:37.242Z,10.80
2018-10-01T02:43:04.391Z,10.71
2018-10-01T02:45:31.641Z,10.86
2018-10-01T02:47:58.799Z,10.85
2018-10-01T02:50:25.939Z,10.75
2018-10-01T02:52:59.270Z,10.78
2018-10-01T02:55:26.467Z,10.86
2018-10-01T02:57:53.585Z,10.90
2018-10-01T03:00:20.781Z,10.95
2018-10-01T03:02:47.979Z,10.99
2018-10-01T03:05:15.191Z,10.96
2018-10-01T03:07:42.380Z,10.96
2018-10-01T03:10:09.542Z,10.96
2018-10-01T03:12:36.733Z,10.19
2018-10-01T03:15:03.894Z,10.93
2018-10-01T03:17:31.115Z,11.04
2018-10-01T03:19:58.640Z,11.01
2018-10-01T03:22:25.898Z,11.07
2018-10-01T03:24:53.043Z,11.22
2018-10-01T03:27:20.221Z,11.22
2018-10-01T03:29:47.362Z,11.29
2018-10-01T03:32:14.758Z,11.47
2018-10-01T03:34:41.921Z,11.45
2018-10-01T03:37:09.113Z,11.49
2018-10-01T03:39:36.319Z,11.56
2018-10-01T03:42:03.455Z,11.54
2018-10-01T03:44:30.600Z,11.43
2018-10-01T03:46:57.745Z,11.36
2018-10-01T03:49:24.931Z,11.43
2018-10-01T03:51:52.113Z,11.47
2018-10-01T03:54:19.271Z,11.52
2018-10-01T03:56:46.485Z,11.56
2018-10-01T03:59:13.699Z,11.61
2018-10-01T04:01:40.828Z,11.63
2018-10-01T04:04:08.145Z,11.35
2018-10-01T04:06:35.316Z,11.40
2018-10-01T04:09:02.746Z,11.12
2018-10-01T04:11:29.838Z,10.90
2018-10-01T04:13:57.046Z,11.05
2018-10-01T04:16:24.222Z,10.96
2018-10-01T04:18:51.382Z,10.87
2018-10-01T04:21:18.726Z,10.90
2018-10-01T04:23:45.985Z,11.05
2018-10-01T04:26:13.168Z,11.16
2018-10-01T04:28:40.683Z,11.26
2018-10-01T04:31:08.041Z,11.33
2018-10-01T04:33:35.210Z,11.35
2018-10-01T04:36:02.337Z,11.35
2018-10-01T04:38:29.590Z,11.30
2018-10-01T04:40:56.741Z,11.52
2018-10-01T04:43:23.942Z,11.55
2018-10-01T04:45:51.286Z,11.44
2018-10-01T04:48:18.511Z,11.20
2018-10-01T04:50:45.673Z,11.08
2018-10-01T04:53:12.866Z,10.93
2018-10-01T04:55:40.074Z,11.01
2018-10-01T04:58:07.230Z,11.10
2018-10-01T05:00:34.614Z,11.13
2018-10-01T05:03:01.940Z,11.37
2018-10-01T05:05:29.300Z,11.36
2018-10-01T05:07:56.514Z,11.30
2018-10-01T05:10:23.801Z,11.40
2018-10-01T05:12:51.091Z,11.51
2018-10-01T05:15:18.426Z,11.41
2018-10-01T05:17:46.985Z,11.32
2018-10-01T05:20:14.376Z,11.31
2018-10-01T05:22:41.691Z,11.32
2018-10-01T05:25:09.588Z,11.36
2018-10-01T05:27:36.845Z,11.46
2018-10-01T05:30:04.679Z,11.58
2018-10-01T05:32:32.140Z,11.61
2018-10-01T05:34:59.324Z,11.62
2018-10-01T05:37:26.541Z,11.60
2018-10-01T05:39:53.766Z,11.61
2018-10-01T05:42:21.027Z,11.49
2018-10-01T05:44:48.196Z,11.51
2018-10-01T05:47:15.388Z,11.58
2018-10-01T05:49:42.647Z,11.40
2018-10-01T05:52:09.881Z,11.46
2018-10-01T05:54:37.095Z,11.47
2018-10-01T05:57:04.305Z,11.59
2018-10-01T05:59:31.604Z,11.54
2018-10-01T06:01:58.853Z,11.47
2018-10-01T06:04:26.022Z,11.59
2018-10-01T06:06:53.612Z,11.68
2018-10-01T06:09:20.969Z,11.82
2018-10-01T06:11:49.358Z,10.93
2018-10-01T06:14:16.544Z,11.92
2018-10-01T06:16:43.773Z,11.95
2018-10-01T06:19:10.978Z,12.02
2018-10-01T06:21:38.202Z,12.04
2018-10-01T06:24:05.510Z,11.90
2018-10-01T06:26:32.814Z,11.76
2018-10-01T06:28:59.973Z,11.73
2018-10-01T06:31:27.146Z,11.77
2018-10-01T06:33:54.354Z,11.95
2018-10-01T06:36:21.740Z,12.03
2018-10-01T06:38:49.263Z,12.01
2018-10-01T06:41:16.756Z,11.94
2018-10-01T06:43:43.965Z,11.99
2018-10-01T06:46:11.185Z,11.97
2018-10-01T06:48:38.436Z,12.05
2018-10-01T06:51:06.639Z,12.06
2018-10-01T06:53:33.926Z,12.14
2018-10-01T06:56:01.142Z,12.05
2018-10-01T06:58:28.418Z,12.02
2018-10-01T07:00:55.660Z,12.11
2018-10-01T07:03:22.862Z,11.97
2018-10-01T07:05:50.356Z,11.97
2018-10-01T07:08:17.373Z,11.97
2018-10-01T07:10:44.613Z,12.00
2018-10-01T07:13:11.773Z,12.07
2018-10-01T07:15:39.137Z,12.14
2018-10-01T07:18:06.292Z,12.16
2018-10-01T07:20:33.470Z,12.21
2018-10-01T07:23:01.057Z,12.11
2018-10-01T07:25:28.300Z,12.15
2018-10-01T07:27:55.431Z,12.19
2018-10-01T07:30:22.718Z,12.33
2018-10-01T07:32:49.893Z,12.39
2018-10-01T07:35:17.128Z,12.44
2018-10-01T07:37:44.262Z,12.48
2018-10-01T07:40:11.541Z,12.63
2018-10-01T07:42:39.184Z,12.77
2018-10-01T07:45:06.731Z,12.74
2018-10-01T07:47:33.885Z,12.63
2018-10-01T07:50:01.082Z,12.63
2018-10-01T07:52:28.382Z,12.73
2018-10-01T07:54:55.637Z,12.84
2018-10-01T07:57:22.878Z,12.83
2018-10-01T07:59:50.871Z,12.94
2018-10-01T08:02:18.001Z,12.93
2018-10-01T08:04:45.282Z,13.06
2018-10-01T08:07:12.496Z,13.18
2018-10-01T08:09:39.768Z,13.11
2018-10-01T08:12:07.214Z,13.14
2018-10-01T08:14:34.386Z,13.16
2018-10-01T08:17:01.769Z,13.09
2018-10-01T08:19:29.168Z,13.19
2018-10-01T08:21:56.404Z,13.35
2018-10-01T08:24:23.601Z,13.14
2018-10-01T08:26:51.350Z,13.10
2018-10-01T08:29:18.610Z,12.93
2018-10-01T08:31:45.713Z,12.92
2018-10-01T08:34:13.038Z,12.86
2018-10-01T08:36:40.539Z,13.05
2018-10-01T08:39:10.421Z,13.12
2018-10-01T08:41:39.491Z,13.26
2018-10-01T08:44:07.310Z,13.33
2018-10-01T08:46:34.609Z,13.42
2018-10-01T08:49:10.923Z,13.37
2018-10-01T08:51:48.547Z,13.48
2018-10-01T08:54:22.530Z,13.47
2018-10-01T08:56:49.813Z,13.52
2018-10-01T08:59:17.090Z,13.59
2018-10-01T09:01:44.515Z,13.60
2018-10-01T09:04:12.286Z,13.63
2018-10-01T09:06:44.398Z,13.72
2018-10-01T09:09:12.466Z,13.81
2018-10-01T09:11:39.881Z,13.76
2018-10-01T09:14:07.184Z,13.75
2018-10-01T09:16:34.478Z,13.78
2018-10-01T09:19:03.196Z,13.87
2018-10-01T09:21:30.719Z,14.07
2018-10-01T09:23:58.162Z,14.11
2018-10-01T09:26:25.625Z,14.17
2018-10-01T09:28:53.035Z,14.16
2018-10-01T09:31:20.371Z,14.17
2018-10-01T09:33:48.033Z,14.24
2018-10-01T09:36:15.350Z,14.22
2018-10-01T09:38:42.566Z,14.34
2018-10-01T09:41:09.866Z,14.43
2018-10-01T09:43:37.168Z,14.38
2018-10-01T09:46:04.429Z,14.36
2018-10-01T09:48:32.014Z,14.39
2018-10-01T09:50:59.253Z,14.37
2018-10-01T09:53:26.781Z,14.28
2018-10-01T09:55:54.541Z,14.27
2018-10-01T09:58:22.120Z,14.35
2018-10-01T10:00:55.157Z,14.31
2018-10-01T10:03:22.499Z,14.42
2018-10-01T10:05:49.898Z,14.50
2018-10-01T10:08:17.394Z,14.24
2018-10-01T10:10:44.559Z,14.15
2018-10-01T10:13:11.845Z,14.29
2018-10-01T10:15:39.065Z,14.30
2018-10-01T10:18:06.355Z,14.46
2018-10-01T10:20:34.341Z,14.58
2018-10-01T10:23:01.526Z,14.68
2018-10-01T10:25:28.729Z,15.01
2018-10-01T10:27:55.903Z,15.26
2018-10-01T10:30:23.128Z,15.43
2018-10-01T10:32:50.558Z,15.37
2018-10-01T10:35:17.994Z,15.28
2018-10-01T10:37:45.245Z,15.51
2018-10-01T10:40:12.553Z,15.65
2018-10-01T10:42:40.692Z,15.55
2018-10-01T10:45:08.073Z,15.68
2018-10-01T10:47:35.359Z,15.42
2018-10-01T10:50:02.689Z,15.37
2018-10-01T10:52:29.940Z,15.41
2018-10-01T10:54:57.238Z,15.28
2018-10-01T10:57:24.438Z,15.29
2018-10-01T10:59:51.889Z,15.13
2018-10-01T11:02:19.136Z,15.16
2018-10-01T11:04:46.317Z,15.10
2018-10-01T11:07:13.514Z,15.15
2018-10-01T11:09:40.768Z,14.84
2018-10-01T11:12:07.954Z,14.92
2018-10-01T11:14:35.302Z,14.99
2018-10-01T11:17:02.757Z,15.01
2018-10-01T11:19:30.093Z,15.02
2018-10-01T11:21:57.705Z,14.92
2018-10-01T11:24:24.937Z,14.95
2018-10-01T11:26:52.312Z,15.19
2018-10-01T11:29:21.183Z,15.33
2018-10-01T11:31:48.557Z,15.33
2018-10-01T11:34:15.651Z,15.24
2018-10-01T11:36:43.140Z,15.08
2018-10-01T11:39:12.494Z,15.33
2018-10-01T11:41:43.230Z,15.35
2018-10-01T11:44:10.593Z,15.18
2018-10-01T11:46:39.170Z,15.17
2018-10-01T11:49:06.920Z,15.10
2018-10-01T11:51:35.184Z,15.22
2018-10-01T11:54:02.367Z,15.29
2018-10-01T11:56:29.597Z,15.17
2018-10-01T11:58:56.831Z,15.15
2018-10-01T12:01:24.271Z,15.38
2018-10-01T12:03:51.489Z,15.66
2018-10-01T12:06:18.683Z,15.87
2018-10-01T12:08:45.903Z,15.85
2018-10-01T12:11:13.187Z,15.75
2018-10-01T12:13:41.098Z,15.80
2018-10-01T12:16:08.718Z,15.80
2018-10-01T12:18:35.800Z,15.81
2018-10-01T12:21:03.175Z,15.76
2018-10-01T12:23:30.451Z,15.85
2018-10-01T12:25:58.240Z,15.80
2018-10-01T12:28:25.717Z,15.82
2018-10-01T12:30:52.951Z,15.92
2018-10-01T12:33:20.353Z,15.91
2018-10-01T12:35:47.482Z,15.97
2018-10-01T12:38:14.728Z,15.94
2018-10-01T12:40:42.051Z,16.00
2018-10-01T12:43:09.333Z,16.13
2018-10-01T12:45:36.663Z,16.15
2018-10-01T12:48:04.768Z,16.18
2018-10-01T12:50:32.262Z,16.25
2018-10-01T12:53:00.261Z,16.37
2018-10-01T12:55:27.664Z,16.71
2018-10-01T12:57:55.022Z,17.02
2018-10-01T13:00:22.362Z,16.90
2018-10-01T13:02:49.898Z,16.76
2018-10-01T13:05:17.869Z,16.83
2018-10-01T13:07:44.984Z,16.83
2018-10-01T13:10:12.766Z,17.14
2018-10-01T13:12:40.161Z,17.58
2018-10-01T13:15:07.616Z,17.79
2018-10-01T13:17:34.883Z,18.09
2018-10-01T13:20:02.418Z,18.46
2018-10-01T13:22:29.668Z,18.42
2018-10-01T13:24:56.944Z,18.60
2018-10-01T13:27:24.100Z,18.35
2018-10-01T13:29:51.425Z,18.26
2018-10-01T13:32:18.640Z,18.25
2018-10-01T13:34:45.977Z,17.81
2018-10-01T13:37:13.254Z,17.71
2018-10-01T13:39:40.461Z,17.86
2018-10-01T13:42:07.861Z,17.77
2018-10-01T13:44:35.301Z,17.42
2018-10-01T13:47:02.527Z,17.38
2018-10-01T13:49:29.805Z,17.60
2018-10-01T13:51:57.178Z,17.87
2018-10-01T13:54:24.478Z,18.02
2018-10-01T13:56:51.739Z,18.16
2018-10-01T13:59:18.992Z,17.96
2018-10-01T14:01:46.239Z,17.81
2018-10-01T14:04:13.436Z,17.65
2018-10-01T14:06:40.917Z,17.49
2018-10-01T14:09:09.687Z,17.20
2018-10-01T14:11:37.010Z,17.16
2018-10-01T14:14:04.304Z,17.18
2018-10-01T14:16:31.590Z,17.00
2018-10-01T14:18:58.916Z,17.13
2018-10-01T14:21:26.177Z,17.11
2018-10-01T14:23:53.386Z,17.06
2018-10-01T14:26:20.619Z,17.08
2018-10-01T14:28:47.835Z,16.90
2018-10-01T14:31:15.101Z,16.62
2018-10-01T14:33:42.833Z,16.64
2018-10-01T14:36:10.184Z,16.07
2018-10-01T14:38:37.429Z,16.59
2018-10-01T14:41:04.642Z,16.57
2018-10-01T14:43:31.900Z,16.68
2018-10-01T14:45:59.094Z,16.56
2018-10-01T14:48:26.453Z,16.43
2018-10-01T14:50:53.677Z,16.49
2018-10-01T14:53:20.954Z,16.41
2018-10-01T14:55:48.228Z,16.37
2018-10-01T14:58:15.655Z,16.38
2018-10-01T15:00:43.569Z,16.07
2018-10-01T15:03:11.112Z,15.79
2018-10-01T15:05:38.286Z,15.67
2018-10-01T15:08:05.810Z,15.62
2018-10-01T15:10:33.708Z,15.64
2018-10-01T15:13:00.982Z,15.42
2018-10-01T15:15:28.223Z,15.45
2018-10-01T15:17:55.747Z,15.42
2018-10-01T15:20:23.013Z,15.40
2018-10-01T15:22:50.273Z,15.29
2018-10-01T15:25:17.510Z,15.39
2018-10-01T15:27:45.828Z,15.32
2018-10-01T15:30:13.089Z,15.19
2018-10-01T15:32:40.438Z,15.00
2018-10-01T15:35:07.728Z,13.89
2018-10-01T15:37:35.061Z,14.16
2018-10-01T15:40:02.510Z,13.59
2018-10-01T15:42:29.762Z,13.27
2018-10-01T15:44:56.913Z,13.30
2018-10-01T15:47:24.088Z,13.32
2018-10-01T15:49:51.505Z,13.28
2018-10-01T15:52:19.099Z,13.29
2018-10-01T15:54:46.376Z,13.38
2018-10-01T15:57:13.816Z,13.37
2018-10-01T15:59:41.127Z,13.42
2018-10-01T16:02:08.398Z,13.33
2018-10-01T16:04:35.671Z,13.49
2018-10-01T16:07:03.558Z,13.42
2018-10-01T16:09:30.847Z,13.46
2018-10-01T16:11:59.082Z,13.55
2018-10-01T16:14:26.346Z,13.36
2018-10-01T16:16:53.821Z,13.45
2018-10-01T16:19:21.075Z,13.56
2018-10-01T16:21:48.283Z,13.66
2018-10-01T16:24:15.548Z,13.77
2018-10-01T16:26:43.118Z,13.84
2018-10-01T16:29:10.358Z,13.91
2018-10-01T16:31:37.730Z,13.77
2018-10-01T16:34:05.395Z,13.60
2018-10-01T16:36:32.681Z,13.64
2018-10-01T16:38:59.913Z,13.74
2018-10-01T16:41:27.091Z,13.79
2018-10-01T16:43:54.326Z,13.78
2018-10-01T16:46:21.611Z,13.83
2018-10-01T16:48:48.952Z,13.82
2018-10-01T16:51:16.200Z,13.62
2018-10-01T16:53:43.598Z,13.68
2018-10-01T16:56:11.125Z,13.59
2018-10-01T16:58:38.343Z,13.48
2018-10-01T17:01:05.573Z,12.81
2018-10-01T17:03:32.996Z,13.44
2018-10-01T17:06:00.296Z,13.50
2018-10-01T17:08:28.858Z,13.61
2018-10-01T17:10:56.207Z,13.84
2018-10-01T17:13:23.983Z,14.88
2018-10-01T17:15:51.636Z,14.49
2018-10-01T17:18:18.973Z,15.20
2018-10-01T17:20:46.443Z,15.18
2018-10-01T17:23:14.167Z,15.47
2018-10-01T17:25:41.564Z,15.10
2018-10-01T17:28:08.869Z,14.72
2018-10-01T17:30:36.231Z,14.73
2018-10-01T17:33:03.529Z,14.53
2018-10-01T17:35:30.806Z,14.24
2018-10-01T17:37:58.233Z,14.12
2018-10-01T17:40:25.898Z,14.07
2018-10-01T17:42:53.543Z,14.01
2018-10-01T17:45:20.924Z,14.63
2018-10-01T17:47:48.577Z,14.91
2018-10-01T17:50:16.064Z,15.03
2018-10-01T17:52:43.322Z,15.11
2018-10-01T17:55:10.636Z,15.23
2018-10-01T17:57:37.931Z,15.28
2018-10-01T18:00:07.401Z,15.21
2018-10-01T18:02:35.047Z,15.43
2018-10-01T18:05:03.140Z,15.06
2018-10-01T18:07:30.798Z,14.74
2018-10-01T18:09:58.021Z,15.06
2018-10-01T18:12:25.709Z,14.97
2018-10-01T18:14:54.657Z,14.43
2018-10-01T18:17:24.530Z,13.91
2018-10-01T18:19:54.711Z,13.68
2018-10-01T18:22:22.893Z,13.85
2018-10-01T18:24:51.395Z,13.91
2018-10-01T18:27:22.061Z,13.93
2018-10-01T18:29:52.041Z,13.83
2018-10-01T18:32:20.228Z,13.84
2018-10-01T18:34:47.553Z,13.56
2018-10-01T18:37:15.439Z,13.91
2018-10-01T18:39:43.105Z,14.33
2018-10-01T18:42:10.919Z,14.48
2018-10-01T18:44:38.896Z,14.21
2018-10-01T18:47:08.596Z,14.12
2018-10-01T18:49:35.927Z,14.30
2018-10-01T18:52:03.267Z,14.34
2018-10-01T18:54:33.373Z,14.50
2018-10-01T18:57:00.655Z,14.50
2018-10-01T18:59:27.956Z,14.69
2018-10-01T19:01:55.560Z,15.08
2018-10-01T19:04:23.064Z,15.19
2018-10-01T19:06:50.378Z,15.08
2018-10-01T19:09:17.653Z,14.92
2018-10-01T19:11:44.994Z,14.85
2018-10-01T19:14:12.510Z,14.94
2018-10-01T19:16:40.015Z,14.66
2018-10-01T19:19:07.738Z,14.99
2018-10-01T19:21:35.008Z,15.15
2018-10-01T19:24:02.281Z,14.75
2018-10-01T19:26:29.705Z,14.50
2018-10-01T19:28:57.057Z,14.58
2018-10-01T19:31:24.374Z,14.29
2018-10-01T19:33:51.811Z,14.49
2018-10-01T19:36:19.145Z,14.55
2018-10-01T19:38:46.531Z,14.69
2018-10-01T19:41:13.881Z,14.64
2018-10-01T19:43:41.323Z,14.89
2018-10-01T19:46:08.607Z,14.83
2018-10-01T19:48:35.824Z,14.51
2018-10-01T19:51:03.068Z,14.66
2018-10-01T19:53:30.396Z,15.04
2018-10-01T19:55:57.851Z,15.05
2018-10-01T19:58:25.141Z,14.84
2018-10-01T20:00:52.462Z,14.93
2018-10-01T20:03:19.821Z,15.02
2018-10-01T20:05:47.101Z,14.69
2018-10-01T20:08:14.275Z,14.55
2018-10-01T20:10:41.566Z,14.60
2018-10-01T20:13:08.806Z,14.62
2018-10-01T20:15:36.021Z,14.04
2018-10-01T20:18:03.311Z,14.09
2018-10-01T20:20:30.685Z,13.95
2018-10-01T20:22:57.948Z,13.91
2018-10-01T20:25:25.180Z,13.79
2018-10-01T20:27:52.606Z,13.21
2018-10-01T20:30:19.676Z,13.61
2018-10-01T20:32:46.963Z,14.02
2018-10-01T20:35:14.232Z,14.38
2018-10-01T20:37:41.501Z,14.53
2018-10-01T20:40:09.082Z,14.69
2018-10-01T20:42:36.309Z,14.75
2018-10-01T20:45:03.771Z,14.45
2018-10-01T20:47:31.125Z,13.98
2018-10-01T20:49:58.428Z,14.09
2018-10-01T20:52:25.767Z,14.34
2018-10-01T20:54:52.943Z,14.41
2018-10-01T20:57:20.233Z,14.66
2018-10-01T20:59:47.449Z,14.62
2018-10-01T21:02:14.974Z,14.67
2018-10-01T21:04:42.330Z,14.80
2018-10-01T21:07:09.697Z,14.75
2018-10-01T21:09:36.965Z,14.80
2018-10-01T21:12:04.186Z,14.49
2018-10-01T21:14:31.442Z,14.35
2018-10-01T21:16:58.621Z,14.14
2018-10-01T21:19:25.794Z,14.23
2018-10-01T21:21:53.957Z,13.96
2018-10-01T21:24:21.234Z,12.93
2018-10-01T21:26:48.546Z,12.68
2018-10-01T21:29:15.773Z,13.31
2018-10-01T21:31:42.990Z,13.54
2018-10-01T21:34:10.237Z,13.77
2018-10-01T21:36:37.351Z,13.84
2018-10-01T21:39:07.163Z,14.18
2018-10-01T21:41:34.312Z,14.01
2018-10-01T21:44:01.565Z,13.84
2018-10-01T21:46:29.257Z,13.74
2018-10-01T21:48:56.411Z,13.96
2018-10-01T21:51:23.602Z,14.01
2018-10-01T21:53:50.853Z,14.11
2018-10-01T21:56:18.109Z,14.13
2018-10-01T21:58:45.294Z,14.00
2018-10-01T22:01:18.295Z,14.15
2018-10-01T22:03:45.517Z,14.03
2018-10-01T22:06:12.716Z,13.87
2018-10-01T22:08:39.990Z,13.82
2018-10-01T22:11:07.583Z,13.66
2018-10-01T22:13:34.754Z,13.49
2018-10-01T22:16:01.914Z,13.73
2018-10-01T22:18:29.099Z,13.51
2018-10-01T22:20:56.304Z,13.50
2018-10-01T22:23:23.418Z,13.54
2018-10-01T22:25:50.695Z,12.45
2018-10-01T22:28:17.846Z,11.64
2018-10-01T22:30:44.976Z,11.16
2018-10-01T22:33:12.169Z,10.79
2018-10-01T22:35:39.508Z,10.43
2018-10-01T22:38:06.694Z,10.15
2018-10-01T22:40:33.861Z,10.23
2018-10-01T22:43:01.302Z,10.00
2018-10-01T22:45:28.546Z,9.89
2018-10-01T22:47:55.873Z,9.86
2018-10-01T22:50:23.279Z,9.61
2018-10-01T22:52:50.550Z,9.73
2018-10-01T22:55:17.811Z,9.49
2018-10-01T22:57:45.092Z,9.34
2018-10-01T23:00:12.290Z,9.48
2018-10-01T23:02:39.569Z,9.48
2018-10-01T23:05:06.718Z,9.31
2018-10-01T23:07:33.905Z,9.24
2018-10-01T23:10:01.152Z,9.37
2018-10-01T23:12:28.316Z,9.49
2018-10-01T23:14:55.517Z,9.41
2018-10-01T23:17:22.679Z,9.27
2018-10-01T23:19:49.977Z,9.21
2018-10-01T23:22:17.170Z,9.09
2018-10-01T23:24:44.484Z,8.85
2018-10-01T23:27:11.616Z,8.69
2018-10-01T23:29:38.850Z,8.61
2018-10-01T23:32:06.011Z,8.58
2018-10-01T23:34:33.132Z,8.59
2018-10-01T23:37:00.314Z,8.76
2018-10-01T23:39:27.534Z,9.03
2018-10-01T23:41:54.819Z,9.20
2018-10-01T23:44:22.011Z,9.23
2018-10-01T23:46:49.113Z,9.01
2018-10-01T23:49:16.346Z,8.62
2018-10-01T23:51:43.502Z,8.36
2018-10-01T23:54:10.673Z,8.22
2018-10-01T23:56:37.906Z,8.26
2018-10-01T23:59:05.319Z,8.39
